createdAt,value
2022-08-04T00:00:09.465Z,15.80
2022-08-04T00:03:16.287Z,15.80
2022-08-04T00:06:13.685Z,15.70
2022-08-04T00:08:50.643Z,15.60
2022-08-04T00:11:23.100Z,15.50
2022-08-04T00:14:11.064Z,15.50
2022-08-04T00:16:40.918Z,15.40
2022-08-04T00:19:14.719Z,15.50
2022-08-04T00:21:47.074Z,15.50
2022-08-04T00:24:16.461Z,15.50
2022-08-04T00:26:44.646Z,15.40
2022-08-04T00:29:11.371Z,15.40
2022-08-04T00:31:56.309Z,15.40
2022-08-04T00:34:29.034Z,15.40
2022-08-04T00:36:57.384Z,15.30
2022-08-04T00:39:29.335Z,15.30
2022-08-04T00:42:49.457Z,15.20
2022-08-04T00:46:16.029Z,15.20
2022-08-04T00:49:19.643Z,15.10
2022-08-04T00:52:31.917Z,15.10
2022-08-04T00:55:36.784Z,15.10
2022-08-04T00:58:30.829Z,15.10
2022-08-04T01:01:06.837Z,15.10
2022-08-04T01:03:57.950Z,15.10
2022-08-04T01:06:56.754Z,15.00
2022-08-04T01:09:54.184Z,15.00
2022-08-04T01:12:42.515Z,15.00
2022-08-04T01:15:30.306Z,15.00
2022-08-04T01:18:13.972Z,15.00
2022-08-04T01:21:05.134Z,15.10
2022-08-04T01:23:37.837Z,15.00
2022-08-04T01:26:43.778Z,14.90
2022-08-04T01:29:14.967Z,14.90
2022-08-04T01:32:02.686Z,14.80
2022-08-04T01:34:49.919Z,14.90
2022-08-04T01:37:19.805Z,14.90
2022-08-04T01:40:02.598Z,14.90
2022-08-04T01:42:34.987Z,14.80
2022-08-04T01:45:07.805Z,14.80
2022-08-04T01:47:37.210Z,14.70
2022-08-04T01:50:10.272Z,14.70
2022-08-04T01:52:40.077Z,14.70
2022-08-04T01:55:10.537Z,14.70
2022-08-04T01:57:49.149Z,14.70
2022-08-04T02:00:22.050Z,14.70
2022-08-04T02:02:50.594Z,14.60
2022-08-04T02:05:23.798Z,14.60
2022-08-04T02:08:21.824Z,14.50
2022-08-04T02:10:57.291Z,14.50
2022-08-04T02:13:31.115Z,14.60
2022-08-04T02:16:13.691Z,14.50
2022-08-04T02:19:16.931Z,14.50
2022-08-04T02:21:51.679Z,14.60
2022-08-04T02:24:32.066Z,14.50
2022-08-04T02:27:01.641Z,14.40
2022-08-04T02:30:03.703Z,14.40
2022-08-04T02:32:39.097Z,14.40
2022-08-04T02:35:15.215Z,14.40
2022-08-04T02:38:11.703Z,14.30
2022-08-04T02:40:48.865Z,14.30
2022-08-04T02:43:18.414Z,14.30
2022-08-04T02:46:17.895Z,14.20
2022-08-04T02:48:47.646Z,14.20
2022-08-04T02:51:16.819Z,14.20
2022-08-04T02:53:45.124Z,14.10
2022-08-04T02:56:15.290Z,14.00
2022-08-04T02:58:42.929Z,14.00
2022-08-04T03:01:09.759Z,13.90
2022-08-04T03:04:00.610Z,14.00
2022-08-04T03:07:07.612Z,14.00
2022-08-04T03:09:55.932Z,14.00
2022-08-04T03:12:58.962Z,14.00
2022-08-04T03:16:03.919Z,14.00
2022-08-04T03:18:30.855Z,14.00
2022-08-04T03:21:09.653Z,14.10
2022-08-04T03:23:59.847Z,13.90
2022-08-04T03:26:46.333Z,13.90
2022-08-04T03:29:50.422Z,13.80
2022-08-04T03:33:01.577Z,13.80
2022-08-04T03:36:05.112Z,13.80
2022-08-04T03:39:09.336Z,13.70
2022-08-04T03:42:03.923Z,13.70
2022-08-04T03:44:53.394Z,13.70
2022-08-04T03:47:33.316Z,13.70
2022-08-04T03:50:41.461Z,13.70
2022-08-04T03:53:31.971Z,13.80
2022-08-04T03:56:26.636Z,13.80
2022-08-04T03:59:12.547Z,13.80
2022-08-04T04:02:22.503Z,13.90
2022-08-04T04:05:58.941Z,13.90
2022-08-04T04:08:41.901Z,13.90
2022-08-04T04:11:19.363Z,13.90
2022-08-04T04:14:18.835Z,14.00
2022-08-04T04:16:51.529Z,14.00
2022-08-04T04:19:42.258Z,14.10
2022-08-04T04:22:12.009Z,14.20
2022-08-04T04:24:57.198Z,14.30
2022-08-04T04:27:39.813Z,14.40
2022-08-04T04:30:24.997Z,14.40
2022-08-04T04:32:54.746Z,14.50
2022-08-04T04:35:48.142Z,14.50
2022-08-04T04:38:18.290Z,14.50
2022-08-04T04:41:19.472Z,14.70
2022-08-04T04:44:19.571Z,14.80
2022-08-04T04:46:49.382Z,14.90
2022-08-04T04:49:38.010Z,15.10
2022-08-04T04:52:36.672Z,15.30
2022-08-04T04:55:13.464Z,15.50
2022-08-04T04:57:53.361Z,15.60
2022-08-04T05:00:25.014Z,15.70
2022-08-04T05:03:01.064Z,15.90
2022-08-04T05:05:38.800Z,15.90
2022-08-04T05:08:45.519Z,16.10
2022-08-04T05:11:49.479Z,16.20
2022-08-04T05:14:38.057Z,16.30
2022-08-04T05:17:42.022Z,16.60
2022-08-04T05:20:14.970Z,16.90
2022-08-04T05:23:01.566Z,17.10
2022-08-04T05:25:59.580Z,17.20
2022-08-04T05:28:34.522Z,17.40
2022-08-04T05:31:05.445Z,17.60
2022-08-04T05:33:43.678Z,17.90
2022-08-04T05:36:23.854Z,18.30
2022-08-04T05:39:00.061Z,18.60
2022-08-04T05:41:44.865Z,18.80
2022-08-04T05:44:18.033Z,18.90
2022-08-04T05:46:54.063Z,19.00
2022-08-04T05:49:24.095Z,19.10
2022-08-04T05:51:55.352Z,19.20
2022-08-04T05:54:23.103Z,19.20
2022-08-04T05:56:51.304Z,19.30
2022-08-04T05:59:22.289Z,19.40
2022-08-04T06:01:55.606Z,19.60
2022-08-04T06:04:28.096Z,19.70
2022-08-04T06:06:55.407Z,19.90
2022-08-04T06:09:25.402Z,20.10
2022-08-04T06:12:03.309Z,20.30
2022-08-04T06:14:40.542Z,20.50
2022-08-04T06:18:33.523Z,20.70
2022-08-04T06:20:19.037Z,20.90
2022-08-04T06:22:54.166Z,21.10
2022-08-04T06:25:24.835Z,21.30
2022-08-04T06:27:59.856Z,21.50
2022-08-04T06:30:28.429Z,21.70
2022-08-04T06:33:03.562Z,22.00
2022-08-04T06:35:32.570Z,22.20
2022-08-04T06:38:02.441Z,22.50
2022-08-04T06:40:33.626Z,22.80
2022-08-04T06:43:07.897Z,23.10
2022-08-04T06:45:37.694Z,23.50
2022-08-04T06:48:06.880Z,23.80
2022-08-04T06:51:28.109Z,24.00
2022-08-04T06:53:29.607Z,24.30
2022-08-04T06:55:59.147Z,24.50
2022-08-04T06:58:27.314Z,24.70
2022-08-04T07:00:55.827Z,24.80
2022-08-04T07:03:23.486Z,25.00
2022-08-04T07:05:51.651Z,25.10
2022-08-04T07:08:19.469Z,25.20
2022-08-04T07:10:46.588Z,25.30
2022-08-04T07:13:18.449Z,25.50
2022-08-04T07:15:46.654Z,25.70
2022-08-04T07:18:16.798Z,25.90
2022-08-04T07:20:45.057Z,26.00
2022-08-04T07:23:19.527Z,26.10
2022-08-04T07:26:00.210Z,26.20
2022-08-04T07:28:41.096Z,26.40
2022-08-04T07:31:16.582Z,26.50
2022-08-04T07:34:17.436Z,26.50
2022-08-04T07:36:52.705Z,26.60
2022-08-04T07:39:28.256Z,26.80
2022-08-04T07:41:57.379Z,27.00
2022-08-04T07:44:27.955Z,27.10
2022-08-04T07:46:57.419Z,27.20
2022-08-04T07:49:54.703Z,27.30
2022-08-04T07:52:16.659Z,27.40
2022-08-04T07:54:43.763Z,27.50
2022-08-04T07:57:19.620Z,27.70
2022-08-04T08:00:00.753Z,27.90
2022-08-04T08:02:28.373Z,28.00
2022-08-04T08:04:55.312Z,28.10
2022-08-04T08:07:22.489Z,28.20
2022-08-04T08:09:49.489Z,28.20
2022-08-04T08:12:35.441Z,28.30
2022-08-04T08:15:04.848Z,28.40
2022-08-04T08:17:31.674Z,28.40
2022-08-04T08:20:28.971Z,28.50
2022-08-04T08:22:59.679Z,28.30
2022-08-04T08:25:27.182Z,28.40
2022-08-04T08:27:56.071Z,28.40
2022-08-04T08:30:31.544Z,28.40
2022-08-04T08:33:01.767Z,28.50
2022-08-04T08:35:35.237Z,28.80
2022-08-04T08:38:07.856Z,28.90
2022-08-04T08:41:41.209Z,28.90
2022-08-04T08:44:34.963Z,28.80
2022-08-04T08:47:29.696Z,28.90
2022-08-04T08:50:46.744Z,28.80
2022-08-04T08:53:38.918Z,28.90
2022-08-04T08:56:19.458Z,28.90
2022-08-04T08:59:23.311Z,29.00
2022-08-04T09:01:56.147Z,29.10
2022-08-04T09:04:43.595Z,29.30
2022-08-04T09:07:48.970Z,29.70
2022-08-04T09:10:28.697Z,29.80
2022-08-04T09:13:04.653Z,30.00
2022-08-04T09:16:10.557Z,30.00
2022-08-04T09:18:48.129Z,30.10
2022-08-04T09:21:25.831Z,30.30
2022-08-04T09:24:35.739Z,30.30
2022-08-04T09:27:19.991Z,30.40
2022-08-04T09:30:04.072Z,30.50
2022-08-04T09:32:52.252Z,30.60
2022-08-04T09:35:33.438Z,30.80
2022-08-04T09:38:26.494Z,30.70
2022-08-04T09:41:20.608Z,30.80
2022-08-04T09:44:50.681Z,30.90
2022-08-04T09:47:39.857Z,31.10
2022-08-04T09:50:37.800Z,31.20
2022-08-04T09:53:18.561Z,31.10
2022-08-04T09:55:53.975Z,31.30
2022-08-04T09:58:53.919Z,31.20
2022-08-04T10:01:24.253Z,31.30
2022-08-04T10:03:55.433Z,31.40
2022-08-04T10:07:10.511Z,31.20
2022-08-04T10:10:09.450Z,31.10
2022-08-04T10:12:56.721Z,31.10
2022-08-04T10:15:36.808Z,31.30
2022-08-04T10:18:24.050Z,31.60
2022-08-04T10:21:28.821Z,31.60
2022-08-04T10:24:34.978Z,31.30
2022-08-04T10:27:09.711Z,31.40
2022-08-04T10:29:47.384Z,31.70
2022-08-04T10:32:43.108Z,31.60
2022-08-04T10:35:13.972Z,31.70
2022-08-04T10:38:05.850Z,31.70
2022-08-04T10:41:02.737Z,31.70
2022-08-04T10:43:36.017Z,31.60
2022-08-04T10:46:23.210Z,31.50
2022-08-04T10:49:00.137Z,31.50
2022-08-04T10:51:58.058Z,31.70
2022-08-04T10:54:50.891Z,31.80
2022-08-04T10:57:35.823Z,31.80
2022-08-04T11:00:15.675Z,31.70
2022-08-04T11:02:56.851Z,31.70
2022-08-04T11:05:30.819Z,31.80
2022-08-04T11:08:05.601Z,31.80
2022-08-04T11:10:42.158Z,31.90
2022-08-04T11:13:22.141Z,32.10
2022-08-04T11:16:02.874Z,32.10
2022-08-04T11:18:38.755Z,32.10
2022-08-04T11:21:18.418Z,32.20
2022-08-04T11:23:56.465Z,32.30
2022-08-04T11:26:45.620Z,32.20
2022-08-04T11:29:46.445Z,32.20
2022-08-04T11:32:21.989Z,32.30
2022-08-04T11:34:53.238Z,32.40
2022-08-04T11:37:35.047Z,32.30
2022-08-04T11:40:13.850Z,32.30
2022-08-04T11:42:50.116Z,32.40
2022-08-04T11:46:03.971Z,32.30
2022-08-04T11:48:37.236Z,32.50
2022-08-04T11:51:08.756Z,32.70
2022-08-04T11:53:40.260Z,33.00
2022-08-04T11:56:13.527Z,33.10
2022-08-04T11:58:50.232Z,33.00
2022-08-04T12:01:41.684Z,33.10
2022-08-04T12:04:24.634Z,33.20
2022-08-04T12:07:30.694Z,33.30
2022-08-04T12:10:10.367Z,33.00
2022-08-04T12:13:03.363Z,32.90
2022-08-04T12:15:36.246Z,33.10
2022-08-04T12:18:14.442Z,33.20
2022-08-04T12:20:53.404Z,33.10
2022-08-04T12:23:29.947Z,32.90
2022-08-04T12:26:05.705Z,33.00
2022-08-04T12:29:08.660Z,33.20
2022-08-04T12:31:40.704Z,33.30
2022-08-04T12:34:12.902Z,33.30
2022-08-04T12:37:07.177Z,33.40
2022-08-04T12:40:27.881Z,33.40
2022-08-04T12:42:30.487Z,33.50
2022-08-04T12:44:58.356Z,33.30
2022-08-04T12:47:30.052Z,33.30
2022-08-04T12:50:02.929Z,33.40
2022-08-04T12:53:02.695Z,33.50
2022-08-04T12:55:35.277Z,33.50
2022-08-04T12:58:04.507Z,33.50
2022-08-04T13:00:41.100Z,33.50
2022-08-04T13:03:14.235Z,33.80
2022-08-04T13:05:42.162Z,33.90
2022-08-04T13:08:11.391Z,33.90
2022-08-04T13:10:48.715Z,33.90
2022-08-04T13:13:21.821Z,33.80
2022-08-04T13:15:58.054Z,33.80
2022-08-04T13:18:30.442Z,33.70
2022-08-04T13:21:20.398Z,33.80
2022-08-04T13:24:10.070Z,33.80
2022-08-04T13:26:53.993Z,33.60
2022-08-04T13:29:59.305Z,33.60
2022-08-04T13:32:20.451Z,33.80
2022-08-04T13:34:52.376Z,33.80
2022-08-04T13:37:26.781Z,33.90
2022-08-04T13:39:56.503Z,34.10
2022-08-04T13:42:25.851Z,34.30
2022-08-04T13:44:59.888Z,34.60
2022-08-04T13:47:36.524Z,34.70
2022-08-04T13:50:15.659Z,34.80
2022-08-04T13:52:44.006Z,34.70
2022-08-04T13:55:44.176Z,34.20
2022-08-04T13:58:19.531Z,34.20
2022-08-04T14:00:51.958Z,34.00
2022-08-04T14:03:27.142Z,34.00
2022-08-04T14:06:14.635Z,34.00
2022-08-04T14:09:04.914Z,34.20
2022-08-04T14:12:09.138Z,34.40
2022-08-04T14:14:24.055Z,34.60
2022-08-04T14:17:05.402Z,34.70
2022-08-04T14:19:48.935Z,34.60
2022-08-04T14:22:38.585Z,34.20
2022-08-04T14:25:17.191Z,34.00
2022-08-04T14:27:55.631Z,34.40
2022-08-04T14:30:33.187Z,35.00
2022-08-04T14:33:56.488Z,35.30
2022-08-04T14:36:03.886Z,35.40
2022-08-04T14:38:53.898Z,35.90
2022-08-04T14:41:44.331Z,36.30
2022-08-04T14:44:11.299Z,36.50
2022-08-04T14:46:52.069Z,36.40
2022-08-04T14:49:23.270Z,36.40
2022-08-04T14:51:59.545Z,36.70
2022-08-04T14:54:28.693Z,36.60
2022-08-04T14:56:59.119Z,36.80
2022-08-04T14:59:26.009Z,36.40
2022-08-04T15:02:00.303Z,36.60
2022-08-04T15:04:31.758Z,37.20
2022-08-04T15:07:00.257Z,37.40
2022-08-04T15:09:27.564Z,38.30
2022-08-04T15:11:55.016Z,38.60
2022-08-04T15:14:36.948Z,38.90
2022-08-04T15:17:12.146Z,38.20
2022-08-04T15:19:55.718Z,37.90
2022-08-04T15:22:23.238Z,38.30
2022-08-04T15:24:52.213Z,38.80
2022-08-04T15:27:26.910Z,39.40
2022-08-04T15:30:04.026Z,40.00
2022-08-04T15:32:34.049Z,40.20
2022-08-04T15:35:28.907Z,40.10
2022-08-04T15:38:08.826Z,40.40
2022-08-04T15:40:48.992Z,40.50
2022-08-04T15:43:55.389Z,40.70
2022-08-04T15:46:52.193Z,41.10
2022-08-04T15:49:20.445Z,41.60
2022-08-04T15:51:47.505Z,41.40
2022-08-04T15:54:23.478Z,40.90
2022-08-04T15:57:02.234Z,39.80
2022-08-04T16:00:12.569Z,38.80
2022-08-04T16:02:43.790Z,39.10
2022-08-04T16:05:17.805Z,40.20
2022-08-04T16:08:11.758Z,40.70
2022-08-04T16:10:40.946Z,40.10
2022-08-04T16:13:22.744Z,40.50
2022-08-04T16:15:51.099Z,41.50
2022-08-04T16:18:26.182Z,42.00
2022-08-04T16:21:20.007Z,42.10
2022-08-04T16:23:56.841Z,42.10
2022-08-04T16:26:37.764Z,41.50
2022-08-04T16:29:30.737Z,41.00
2022-08-04T16:32:16.681Z,41.10
2022-08-04T16:35:04.832Z,41.90
2022-08-04T16:37:43.105Z,42.50
2022-08-04T16:40:35.274Z,42.20
2022-08-04T16:43:13.488Z,41.10
2022-08-04T16:45:43.560Z,40.50
2022-08-04T16:48:15.641Z,40.40
2022-08-04T16:51:06.864Z,40.10
2022-08-04T16:54:03.287Z,39.70
2022-08-04T16:56:30.258Z,39.60
2022-08-04T16:59:07.516Z,39.10
2022-08-04T17:01:35.165Z,39.00
2022-08-04T17:04:06.914Z,39.20
2022-08-04T17:06:42.016Z,40.20
2022-08-04T17:09:28.176Z,41.20
2022-08-04T17:11:57.221Z,41.70
2022-08-04T17:14:29.410Z,42.00
2022-08-04T17:17:00.173Z,41.70
2022-08-04T17:19:30.001Z,41.60
2022-08-04T17:22:05.869Z,40.50
2022-08-04T17:24:35.666Z,39.80
2022-08-04T17:27:04.425Z,39.50
2022-08-04T17:29:53.595Z,39.10
2022-08-04T17:35:09.084Z,37.90
2022-08-04T17:37:39.672Z,36.90
2022-08-04T17:40:18.479Z,36.00
2022-08-04T17:44:03.505Z,35.40
2022-08-04T17:46:28.420Z,34.90
2022-08-04T17:49:06.704Z,33.70
2022-08-04T17:52:05.328Z,32.70
2022-08-04T17:54:37.278Z,32.00
2022-08-04T17:57:21.340Z,31.20
2022-08-04T17:59:58.039Z,30.50
2022-08-04T18:02:34.092Z,29.90
2022-08-04T18:05:05.933Z,29.40
2022-08-04T18:08:35.090Z,29.00
2022-08-04T18:10:55.773Z,28.80
2022-08-04T18:13:28.341Z,28.50
2022-08-04T18:16:03.570Z,28.10
2022-08-04T18:18:30.863Z,27.80
2022-08-04T18:20:59.609Z,27.70
2022-08-04T18:23:32.125Z,27.40
2022-08-04T18:26:18.074Z,27.10
2022-08-04T18:28:47.860Z,26.80
2022-08-04T18:31:16.648Z,26.60
2022-08-04T18:33:43.747Z,26.40
2022-08-04T18:36:34.013Z,26.20
2022-08-04T18:40:00.850Z,26.00
2022-08-04T18:42:04.001Z,25.80
2022-08-04T18:44:49.375Z,25.60
2022-08-04T18:47:28.850Z,25.40
2022-08-04T18:51:01.120Z,25.10
2022-08-04T18:52:45.608Z,24.90
2022-08-04T18:55:56.032Z,24.80
2022-08-04T18:58:06.048Z,24.60
2022-08-04T19:00:35.560Z,24.50
2022-08-04T19:03:03.068Z,24.30
2022-08-04T19:05:37.851Z,24.10
2022-08-04T19:08:32.545Z,23.90
2022-08-04T19:10:59.875Z,23.60
2022-08-04T19:13:28.108Z,23.40
2022-08-04T19:15:55.018Z,23.30
2022-08-04T19:18:32.782Z,23.10
2022-08-04T19:21:05.195Z,23.00
2022-08-04T19:24:28.691Z,23.00
2022-08-04T19:26:28.255Z,22.80
2022-08-04T19:28:55.914Z,22.70
2022-08-04T19:34:10.203Z,22.40
2022-08-04T19:36:40.635Z,22.30
2022-08-04T19:39:13.692Z,22.20
2022-08-04T19:42:06.055Z,22.00
2022-08-04T19:44:29.851Z,21.90
2022-08-04T19:47:00.459Z,21.80
2022-08-04T19:50:04.623Z,21.60
2022-08-04T19:52:34.240Z,21.60
2022-08-04T19:55:09.683Z,21.40
2022-08-04T19:57:38.067Z,21.20
2022-08-04T20:00:10.181Z,21.20
2022-08-04T20:02:37.607Z,21.00
2022-08-04T20:05:08.788Z,20.90
2022-08-04T20:07:36.100Z,20.80
2022-08-04T20:10:05.148Z,20.80
2022-08-04T20:12:42.126Z,20.80
2022-08-04T20:15:10.920Z,20.80
2022-08-04T20:18:35.109Z,20.70
2022-08-04T20:20:29.668Z,20.60
2022-08-04T20:23:05.726Z,20.40
2022-08-04T20:25:37.920Z,20.40
2022-08-04T20:28:06.805Z,20.30
2022-08-04T20:30:36.544Z,20.30
2022-08-04T20:33:04.397Z,20.20
2022-08-04T20:35:45.882Z,20.20
2022-08-04T20:38:33.021Z,20.00
2022-08-04T20:41:01.817Z,20.00
2022-08-04T20:43:31.418Z,19.90
2022-08-04T20:45:59.410Z,19.80
2022-08-04T20:48:33.531Z,19.80
2022-08-04T20:51:00.935Z,19.80
2022-08-04T20:53:46.726Z,19.80
2022-08-04T20:56:19.286Z,19.70
2022-08-04T20:58:59.821Z,19.60
2022-08-04T21:01:32.269Z,19.40
2022-08-04T21:04:27.217Z,19.40
2022-08-04T21:06:56.302Z,19.30
2022-08-04T21:09:26.571Z,19.30
2022-08-04T21:12:07.152Z,19.30
2022-08-04T21:14:36.105Z,19.20
2022-08-04T21:17:03.239Z,19.20
2022-08-04T21:19:31.737Z,19.10
2022-08-04T21:21:59.421Z,19.00
2022-08-04T21:24:27.023Z,19.00
2022-08-04T21:26:56.840Z,18.90
2022-08-04T21:29:34.807Z,18.90
2022-08-04T21:32:07.653Z,18.90
2022-08-04T21:34:43.699Z,18.80
2022-08-04T21:37:24.855Z,18.70
2022-08-04T21:40:14.547Z,18.70
2022-08-04T21:42:42.930Z,18.60
2022-08-04T21:45:20.097Z,18.50
2022-08-04T21:47:52.185Z,18.50
2022-08-04T21:50:20.005Z,18.50
2022-08-04T21:52:50.179Z,18.40
2022-08-04T21:55:17.734Z,18.40
2022-08-04T21:57:45.951Z,18.30
2022-08-04T22:00:18.555Z,18.20
2022-08-04T22:02:47.356Z,18.20
2022-08-04T22:05:21.238Z,18.10
2022-08-04T22:07:54.138Z,18.10
2022-08-04T22:10:32.032Z,18.10
2022-08-04T22:13:00.371Z,18.10
2022-08-04T22:16:04.718Z,18.10
2022-08-04T22:18:21.146Z,18.00
2022-08-04T22:20:52.260Z,17.90
2022-08-04T22:23:24.302Z,17.90
2022-08-04T22:25:56.080Z,17.80
2022-08-04T22:28:28.516Z,17.70
2022-08-04T22:30:58.846Z,17.60
2022-08-04T22:33:54.831Z,17.60
2022-08-04T22:36:16.829Z,17.40
2022-08-04T22:38:54.270Z,17.50
2022-08-04T22:41:34.247Z,17.40
2022-08-04T22:44:16.018Z,17.40
2022-08-04T22:46:46.119Z,17.40
2022-08-04T22:49:12.903Z,17.40
2022-08-04T22:51:50.536Z,17.40
2022-08-04T22:54:17.663Z,17.40
2022-08-04T22:56:45.672Z,17.30
2022-08-04T22:59:13.122Z,17.30
2022-08-04T23:02:00.061Z,17.20
2022-08-04T23:04:30.626Z,17.20
2022-08-04T23:06:57.721Z,17.20
2022-08-04T23:09:48.828Z,17.20
2022-08-04T23:12:25.122Z,17.10
2022-08-04T23:14:52.496Z,17.00
2022-08-04T23:17:22.930Z,17.00
2022-08-04T23:19:57.962Z,16.90
2022-08-04T23:22:41.626Z,17.00
2022-08-04T23:25:15.890Z,17.00
2022-08-04T23:27:50.632Z,17.00
2022-08-04T23:30:24.734Z,17.00
2022-08-04T23:33:02.515Z,17.00
2022-08-04T23:35:32.322Z,16.90
2022-08-04T23:37:59.918Z,16.80
2022-08-04T23:40:49.924Z,16.80
2022-08-04T23:43:18.207Z,16.90
2022-08-04T23:46:07.321Z,16.90
2022-08-04T23:48:39.465Z,16.90
2022-08-04T23:51:14.486Z,16.90
2022-08-04T23:54:03.930Z,16.70
2022-08-04T23:56:32.058Z,16.70
2022-08-04T23:59:03.948Z,16.60
